sensor_id;sensor_type;location;lat;lon;timestamp;P1;durP1;ratioP1;P2;durP2;ratioP2
28714;SDS011;15886;49.170;14.572;2023-03-01T00:02:56;51.05;;;24.77;;
28714;SDS011;15886;49.170;14.572;2023-03-01T00:06:57;50.47;;;24.83;;
28714;SDS011;15886;49.170;14.572;2023-03-01T00:10:40;50.92;;;23.73;;
28714;SDS011;15886;49.170;14.572;2023-03-01T00:17:33;44.67;;;22.65;;
28714;SDS011;15886;49.170;14.572;2023-03-01T01:15:51;49.42;;;24.05;;
28714;SDS011;15886;49.170;14.572;2023-03-01T01:19:50;47.50;;;23.42;;
28714;SDS011;15886;49.170;14.572;2023-03-01T03:17:53;54.15;;;25.25;;
28714;SDS011;15886;49.170;14.572;2023-03-01T03:29:54;51.75;;;26.42;;
28714;SDS011;15886;49.170;14.572;2023-03-01T03:33:24;61.10;;;28.10;;
28714;SDS011;15886;49.170;14.572;2023-03-01T03:39:28;54.75;;;29.23;;
28714;SDS011;15886;49.170;14.572;2023-03-01T03:59:51;60.20;;;30.02;;
28714;SDS011;15886;49.170;14.572;2023-03-01T04:02:41;61.00;;;29.13;;
28714;SDS011;15886;49.170;14.572;2023-03-01T04:26:39;58.38;;;28.63;;
28714;SDS011;15886;49.170;14.572;2023-03-01T05:55:36;66.30;;;28.67;;
28714;SDS011;15886;49.170;14.572;2023-03-01T10:11:30;49.88;;;28.33;;
28714;SDS011;15886;49.170;14.572;2023-03-01T10:14:36;52.63;;;28.65;;
28714;SDS011;15886;49.170;14.572;2023-03-01T10:22:33;44.88;;;26.23;;
28714;SDS011;15886;49.170;14.572;2023-03-01T10:26:07;63.10;;;34.22;;
28714;SDS011;15886;49.170;14.572;2023-03-01T10:29:20;60.65;;;31.52;;
28714;SDS011;15886;49.170;14.572;2023-03-01T10:36:31;47.40;;;26.35;;
28714;SDS011;15886;49.170;14.572;2023-03-01T10:42:49;41.55;;;25.98;;
28714;SDS011;15886;49.170;14.572;2023-03-01T10:49:02;37.67;;;22.00;;
28714;SDS011;15886;49.170;14.572;2023-03-01T10:51:53;42.47;;;24.65;;
28714;SDS011;15886;49.170;14.572;2023-03-01T10:59:32;45.85;;;23.50;;
28714;SDS011;15886;49.170;14.572;2023-03-01T11:05:34;47.15;;;23.80;;
28714;SDS011;15886;49.170;14.572;2023-03-01T11:12:00;39.95;;;22.45;;
28714;SDS011;15886;49.170;14.572;2023-03-01T11:18:58;32.67;;;20.10;;
28714;SDS011;15886;49.170;14.572;2023-03-01T11:26:30;47.28;;;22.25;;
28714;SDS011;15886;49.170;14.572;2023-03-01T11:30:00;32.88;;;19.95;;
28714;SDS011;15886;49.170;14.572;2023-03-01T12:17:48;42.40;;;27.60;;
28714;SDS011;15886;49.170;14.572;2023-03-01T12:27:33;31.02;;;18.00;;
28714;SDS011;15886;49.170;14.572;2023-03-01T12:51:28;39.72;;;20.85;;
28714;SDS011;15886;49.170;14.572;2023-03-01T12:54:15;41.22;;;26.00;;
28714;SDS011;15886;49.170;14.572;2023-03-01T12:57:15;120.78;;;52.75;;
28714;SDS011;15886;49.170;14.572;2023-03-01T13:04:51;186.50;;;69.78;;
28714;SDS011;15886;49.170;14.572;2023-03-01T13:08:14;116.75;;;53.42;;
28714;SDS011;15886;49.170;14.572;2023-03-01T13:11:43;32.70;;;18.95;;
28714;SDS011;15886;49.170;14.572;2023-03-01T13:14:44;174.30;;;62.92;;
28714;SDS011;15886;49.170;14.572;2023-03-01T13:27:32;132.10;;;53.25;;
28714;SDS011;15886;49.170;14.572;2023-03-01T13:34:02;90.90;;;38.15;;
28714;SDS011;15886;49.170;14.572;2023-03-01T13:36:59;120.63;;;48.92;;
28714;SDS011;15886;49.170;14.572;2023-03-01T13:40:05;117.88;;;47.55;;
28714;SDS011;15886;49.170;14.572;2023-03-01T13:46:24;100.47;;;44.20;;
28714;SDS011;15886;49.170;14.572;2023-03-01T13:49:19;33.85;;;20.35;;
28714;SDS011;15886;49.170;14.572;2023-03-01T13:52:04;52.08;;;31.48;;
28714;SDS011;15886;49.170;14.572;2023-03-01T13:57:20;53.47;;;31.33;;
28714;SDS011;15886;49.170;14.572;2023-03-01T13:59:53;41.20;;;24.45;;
28714;SDS011;15886;49.170;14.572;2023-03-01T14:02:44;65.20;;;29.83;;
28714;SDS011;15886;49.170;14.572;2023-03-01T14:05:37;54.22;;;24.30;;
28714;SDS011;15886;49.170;14.572;2023-03-01T14:08:22;74.32;;;26.83;;
28714;SDS011;15886;49.170;14.572;2023-03-01T14:11:31;33.55;;;19.33;;
28714;SDS011;15886;49.170;14.572;2023-03-01T14:17:40;29.55;;;18.80;;
28714;SDS011;15886;49.170;14.572;2023-03-01T14:20:41;28.08;;;19.10;;
28714;SDS011;15886;49.170;14.572;2023-03-01T14:24:06;28.93;;;19.70;;
28714;SDS011;15886;49.170;14.572;2023-03-01T14:27:10;46.65;;;26.73;;
28714;SDS011;15886;49.170;14.572;2023-03-01T14:31:00;47.95;;;24.35;;
28714;SDS011;15886;49.170;14.572;2023-03-01T14:34:52;36.78;;;19.27;;
28714;SDS011;15886;49.170;14.572;2023-03-01T14:37:49;42.63;;;22.38;;
28714;SDS011;15886;49.170;14.572;2023-03-01T14:46:54;55.10;;;24.80;;
28714;SDS011;15886;49.170;14.572;2023-03-01T14:49:54;50.22;;;23.98;;
28714;SDS011;15886;49.170;14.572;2023-03-01T14:53:18;44.92;;;23.23;;
28714;SDS011;15886;49.170;14.572;2023-03-01T14:57:01;49.63;;;26.60;;
28714;SDS011;15886;49.170;14.572;2023-03-01T15:18:48;33.20;;;16.73;;
28714;SDS011;15886;49.170;14.572;2023-03-01T15:21:46;40.75;;;21.02;;
28714;SDS011;15886;49.170;14.572;2023-03-01T15:40:31;27.02;;;14.88;;
28714;SDS011;15886;49.170;14.572;2023-03-01T15:43:07;29.02;;;16.00;;
28714;SDS011;15886;49.170;14.572;2023-03-01T15:52:30;25.92;;;15.10;;
28714;SDS011;15886;49.170;14.572;2023-03-01T16:04:39;55.92;;;35.58;;
28714;SDS011;15886;49.170;14.572;2023-03-01T16:07:36;83.47;;;38.95;;
28714;SDS011;15886;49.170;14.572;2023-03-01T16:10:07;103.13;;;52.67;;
28714;SDS011;15886;49.170;14.572;2023-03-01T16:16:19;109.00;;;58.15;;
28714;SDS011;15886;49.170;14.572;2023-03-01T16:18:47;52.70;;;30.45;;
28714;SDS011;15886;49.170;14.572;2023-03-01T16:21:24;45.92;;;23.13;;
28714;SDS011;15886;49.170;14.572;2023-03-01T16:24:27;35.15;;;18.35;;
28714;SDS011;15886;49.170;14.572;2023-03-01T16:27:18;29.85;;;16.02;;
28714;SDS011;15886;49.170;14.572;2023-03-01T16:30:47;29.75;;;15.15;;
28714;SDS011;15886;49.170;14.572;2023-03-01T16:36:37;150.35;;;72.45;;
28714;SDS011;15886;49.170;14.572;2023-03-01T16:39:44;103.13;;;52.13;;
28714;SDS011;15886;49.170;14.572;2023-03-01T16:42:17;116.97;;;64.35;;
28714;SDS011;15886;49.170;14.572;2023-03-01T16:45:16;104.72;;;49.22;;
28714;SDS011;15886;49.170;14.572;2023-03-01T16:50:59;85.68;;;40.75;;
28714;SDS011;15886;49.170;14.572;2023-03-01T16:56:29;41.72;;;24.17;;
28714;SDS011;15886;49.170;14.572;2023-03-01T17:00:12;60.47;;;33.28;;
28714;SDS011;15886;49.170;14.572;2023-03-01T17:03:20;60.75;;;34.03;;
28714;SDS011;15886;49.170;14.572;2023-03-01T17:06:02;55.63;;;33.30;;
28714;SDS011;15886;49.170;14.572;2023-03-01T17:08:36;51.30;;;29.13;;
28714;SDS011;15886;49.170;14.572;2023-03-01T17:11:15;55.03;;;30.80;;
28714;SDS011;15886;49.170;14.572;2023-03-01T17:13:46;57.05;;;31.98;;
28714;SDS011;15886;49.170;14.572;2023-03-01T17:16:16;49.85;;;28.35;;
28714;SDS011;15886;49.170;14.572;2023-03-01T17:25:13;64.20;;;33.15;;
28714;SDS011;15886;49.170;14.572;2023-03-01T17:28:10;59.90;;;36.92;;
28714;SDS011;15886;49.170;14.572;2023-03-01T17:30:54;86.78;;;47.67;;
28714;SDS011;15886;49.170;14.572;2023-03-01T17:33:38;114.25;;;57.08;;
28714;SDS011;15886;49.170;14.572;2023-03-01T17:36:18;110.93;;;55.85;;
28714;SDS011;15886;49.170;14.572;2023-03-01T17:48:10;126.18;;;60.47;;
28714;SDS011;15886;49.170;14.572;2023-03-01T17:54:01;117.93;;;59.00;;
28714;SDS011;15886;49.170;14.572;2023-03-01T17:56:35;120.18;;;59.60;;
28714;SDS011;15886;49.170;14.572;2023-03-01T18:06:48;110.53;;;55.63;;
28714;SDS011;15886;49.170;14.572;2023-03-01T18:09:17;101.88;;;52.95;;
28714;SDS011;15886;49.170;14.572;2023-03-01T18:11:45;97.50;;;47.25;;
28714;SDS011;15886;49.170;14.572;2023-03-01T18:14:41;93.20;;;48.40;;
28714;SDS011;15886;49.170;14.572;2023-03-01T18:17:10;114.93;;;48.60;;
28714;SDS011;15886;49.170;14.572;2023-03-01T18:19:39;130.52;;;57.00;;
28714;SDS011;15886;49.170;14.572;2023-03-01T18:22:08;150.88;;;62.42;;
28714;SDS011;15886;49.170;14.572;2023-03-01T18:24:41;170.02;;;70.30;;
28714;SDS011;15886;49.170;14.572;2023-03-01T18:27:18;167.43;;;71.55;;
28714;SDS011;15886;49.170;14.572;2023-03-01T18:29:47;151.70;;;61.42;;
28714;SDS011;15886;49.170;14.572;2023-03-01T18:32:16;145.25;;;56.85;;
28714;SDS011;15886;49.170;14.572;2023-03-01T18:34:46;114.90;;;51.08;;
28714;SDS011;15886;49.170;14.572;2023-03-01T18:37:18;95.70;;;44.17;;
28714;SDS011;15886;49.170;14.572;2023-03-01T18:39:51;88.80;;;42.00;;
28714;SDS011;15886;49.170;14.572;2023-03-01T18:42:24;87.40;;;40.70;;
28714;SDS011;15886;49.170;14.572;2023-03-01T18:44:55;75.75;;;37.63;;
28714;SDS011;15886;49.170;14.572;2023-03-01T18:47:31;76.47;;;35.53;;
28714;SDS011;15886;49.170;14.572;2023-03-01T18:49:59;73.18;;;35.00;;
28714;SDS011;15886;49.170;14.572;2023-03-01T18:52:27;68.65;;;35.28;;
28714;SDS011;15886;49.170;14.572;2023-03-01T18:54:58;67.40;;;35.30;;
28714;SDS011;15886;49.170;14.572;2023-03-01T18:57:27;61.55;;;30.55;;
28714;SDS011;15886;49.170;14.572;2023-03-01T19:02:59;59.42;;;31.67;;
28714;SDS011;15886;49.170;14.572;2023-03-01T19:06:47;71.38;;;32.42;;
28714;SDS011;15886;49.170;14.572;2023-03-01T19:13:05;80.10;;;39.40;;
28714;SDS011;15886;49.170;14.572;2023-03-01T19:18:53;87.82;;;42.15;;
28714;SDS011;15886;49.170;14.572;2023-03-01T19:21:29;103.88;;;45.78;;
28714;SDS011;15886;49.170;14.572;2023-03-01T19:23:59;110.07;;;50.40;;
28714;SDS011;15886;49.170;14.572;2023-03-01T19:26:28;96.32;;;48.78;;
28714;SDS011;15886;49.170;14.572;2023-03-01T19:28:58;90.60;;;47.55;;
28714;SDS011;15886;49.170;14.572;2023-03-01T19:31:27;101.05;;;50.35;;
28714;SDS011;15886;49.170;14.572;2023-03-01T19:33:59;97.82;;;49.33;;
28714;SDS011;15886;49.170;14.572;2023-03-01T19:36:40;100.85;;;51.45;;
28714;SDS011;15886;49.170;14.572;2023-03-01T19:39:22;101.72;;;50.83;;
28714;SDS011;15886;49.170;14.572;2023-03-01T19:42:32;102.15;;;50.08;;
28714;SDS011;15886;49.170;14.572;2023-03-01T19:45:01;101.55;;;49.97;;
28714;SDS011;15886;49.170;14.572;2023-03-01T19:47:33;107.97;;;51.05;;
28714;SDS011;15886;49.170;14.572;2023-03-01T19:50:05;101.80;;;50.80;;
28714;SDS011;15886;49.170;14.572;2023-03-01T19:52:35;109.03;;;53.42;;
28714;SDS011;15886;49.170;14.572;2023-03-01T19:55:05;91.32;;;45.38;;
28714;SDS011;15886;49.170;14.572;2023-03-01T19:57:36;101.97;;;50.17;;
28714;SDS011;15886;49.170;14.572;2023-03-01T20:00:37;96.57;;;47.88;;
28714;SDS011;15886;49.170;14.572;2023-03-01T20:03:25;98.53;;;49.15;;
28714;SDS011;15886;49.170;14.572;2023-03-01T20:08:51;87.55;;;42.90;;
28714;SDS011;15886;49.170;14.572;2023-03-01T20:11:25;82.40;;;43.17;;
28714;SDS011;15886;49.170;14.572;2023-03-01T20:17:21;79.03;;;39.47;;
28714;SDS011;15886;49.170;14.572;2023-03-01T20:20:22;71.15;;;36.70;;
28714;SDS011;15886;49.170;14.572;2023-03-01T20:22:54;62.35;;;31.30;;
28714;SDS011;15886;49.170;14.572;2023-03-01T20:25:23;60.83;;;30.48;;
28714;SDS011;15886;49.170;14.572;2023-03-01T20:27:53;52.10;;;27.08;;
28714;SDS011;15886;49.170;14.572;2023-03-01T20:30:21;41.67;;;21.63;;
28714;SDS011;15886;49.170;14.572;2023-03-01T20:32:52;43.85;;;20.63;;
28714;SDS011;15886;49.170;14.572;2023-03-01T20:35:20;38.55;;;18.85;;
28714;SDS011;15886;49.170;14.572;2023-03-01T20:37:51;34.90;;;18.05;;
28714;SDS011;15886;49.170;14.572;2023-03-01T20:40:37;29.35;;;15.70;;
28714;SDS011;15886;49.170;14.572;2023-03-01T20:44:17;35.40;;;16.10;;
28714;SDS011;15886;49.170;14.572;2023-03-01T20:46:49;34.38;;;16.92;;
28714;SDS011;15886;49.170;14.572;2023-03-01T20:49:18;32.55;;;17.17;;
28714;SDS011;15886;49.170;14.572;2023-03-01T20:51:49;31.65;;;16.98;;
28714;SDS011;15886;49.170;14.572;2023-03-01T20:54:18;31.67;;;16.35;;
28714;SDS011;15886;49.170;14.572;2023-03-01T20:56:52;34.00;;;16.33;;
28714;SDS011;15886;49.170;14.572;2023-03-01T20:59:22;31.08;;;15.20;;
28714;SDS011;15886;49.170;14.572;2023-03-01T21:01:50;35.13;;;17.85;;
28714;SDS011;15886;49.170;14.572;2023-03-01T21:04:19;32.17;;;16.20;;
28714;SDS011;15886;49.170;14.572;2023-03-01T21:06:49;32.05;;;17.60;;
28714;SDS011;15886;49.170;14.572;2023-03-01T21:09:19;32.55;;;16.63;;
28714;SDS011;15886;49.170;14.572;2023-03-01T21:11:50;35.05;;;16.90;;
28714;SDS011;15886;49.170;14.572;2023-03-01T21:14:18;53.15;;;22.25;;
28714;SDS011;15886;49.170;14.572;2023-03-01T21:16:48;60.80;;;27.50;;
28714;SDS011;15886;49.170;14.572;2023-03-01T21:19:18;71.93;;;30.77;;
28714;SDS011;15886;49.170;14.572;2023-03-01T21:21:53;77.38;;;30.98;;
28714;SDS011;15886;49.170;14.572;2023-03-01T21:24:22;50.38;;;23.23;;
28714;SDS011;15886;49.170;14.572;2023-03-01T21:26:52;68.07;;;26.77;;
28714;SDS011;15886;49.170;14.572;2023-03-01T21:29:21;55.38;;;22.85;;
28714;SDS011;15886;49.170;14.572;2023-03-01T21:34:35;30.67;;;16.10;;
28714;SDS011;15886;49.170;14.572;2023-03-01T21:37:08;35.53;;;17.48;;
28714;SDS011;15886;49.170;14.572;2023-03-01T21:39:38;34.40;;;16.85;;
28714;SDS011;15886;49.170;14.572;2023-03-01T21:44:39;31.55;;;16.10;;
28714;SDS011;15886;49.170;14.572;2023-03-01T21:47:07;31.88;;;17.40;;
28714;SDS011;15886;49.170;14.572;2023-03-01T21:49:37;37.80;;;18.25;;
28714;SDS011;15886;49.170;14.572;2023-03-01T21:52:13;35.80;;;16.83;;
28714;SDS011;15886;49.170;14.572;2023-03-01T21:54:43;34.33;;;17.15;;
28714;SDS011;15886;49.170;14.572;2023-03-01T21:57:12;35.47;;;16.50;;
28714;SDS011;15886;49.170;14.572;2023-03-01T21:59:40;36.72;;;19.30;;
28714;SDS011;15886;49.170;14.572;2023-03-01T22:02:10;35.38;;;17.67;;
28714;SDS011;15886;49.170;14.572;2023-03-01T22:04:40;36.80;;;18.02;;
28714;SDS011;15886;49.170;14.572;2023-03-01T22:07:08;38.22;;;18.58;;
28714;SDS011;15886;49.170;14.572;2023-03-01T22:09:38;36.47;;;18.80;;
28714;SDS011;15886;49.170;14.572;2023-03-01T22:12:07;53.28;;;21.30;;
28714;SDS011;15886;49.170;14.572;2023-03-01T22:14:38;39.33;;;18.73;;
28714;SDS011;15886;49.170;14.572;2023-03-01T22:17:06;36.22;;;18.30;;
28714;SDS011;15886;49.170;14.572;2023-03-01T22:19:35;40.30;;;18.77;;
28714;SDS011;15886;49.170;14.572;2023-03-01T22:22:04;36.50;;;18.85;;
28714;SDS011;15886;49.170;14.572;2023-03-01T22:24:32;39.45;;;20.77;;
28714;SDS011;15886;49.170;14.572;2023-03-01T22:27:00;40.28;;;22.50;;
28714;SDS011;15886;49.170;14.572;2023-03-01T22:29:29;45.20;;;24.27;;
28714;SDS011;15886;49.170;14.572;2023-03-01T22:31:57;48.50;;;23.85;;
28714;SDS011;15886;49.170;14.572;2023-03-01T22:34:26;50.50;;;26.75;;
28714;SDS011;15886;49.170;14.572;2023-03-01T22:36:54;60.60;;;30.98;;
28714;SDS011;15886;49.170;14.572;2023-03-01T22:39:22;81.50;;;38.00;;
28714;SDS011;15886;49.170;14.572;2023-03-01T22:41:52;76.80;;;36.67;;
28714;SDS011;15886;49.170;14.572;2023-03-01T22:44:21;80.10;;;39.40;;
28714;SDS011;15886;49.170;14.572;2023-03-01T22:46:50;82.13;;;40.72;;
28714;SDS011;15886;49.170;14.572;2023-03-01T22:49:19;92.57;;;41.58;;
28714;SDS011;15886;49.170;14.572;2023-03-01T22:51:49;89.18;;;43.13;;
28714;SDS011;15886;49.170;14.572;2023-03-01T22:54:18;93.22;;;43.17;;
28714;SDS011;15886;49.170;14.572;2023-03-01T22:56:48;86.10;;;40.30;;
28714;SDS011;15886;49.170;14.572;2023-03-01T22:59:18;87.68;;;43.58;;
28714;SDS011;15886;49.170;14.572;2023-03-01T23:01:52;80.85;;;37.45;;
28714;SDS011;15886;49.170;14.572;2023-03-01T23:04:21;83.38;;;39.67;;
28714;SDS011;15886;49.170;14.572;2023-03-01T23:06:50;79.57;;;39.08;;
28714;SDS011;15886;49.170;14.572;2023-03-01T23:09:23;70.00;;;34.38;;
28714;SDS011;15886;49.170;14.572;2023-03-01T23:11:53;64.03;;;33.70;;
28714;SDS011;15886;49.170;14.572;2023-03-01T23:14:22;58.72;;;28.42;;
28714;SDS011;15886;49.170;14.572;2023-03-01T23:19:27;61.40;;;31.35;;
28714;SDS011;15886;49.170;14.572;2023-03-01T23:21:57;61.78;;;32.05;;
28714;SDS011;15886;49.170;14.572;2023-03-01T23:24:25;62.13;;;32.65;;
28714;SDS011;15886;49.170;14.572;2023-03-01T23:26:59;70.43;;;36.70;;
28714;SDS011;15886;49.170;14.572;2023-03-01T23:29:29;67.25;;;33.15;;
28714;SDS011;15886;49.170;14.572;2023-03-01T23:31:59;60.03;;;29.23;;
28714;SDS011;15886;49.170;14.572;2023-03-01T23:34:29;51.47;;;24.10;;
28714;SDS011;15886;49.170;14.572;2023-03-01T23:36:58;58.65;;;26.40;;
28714;SDS011;15886;49.170;14.572;2023-03-01T23:39:26;60.28;;;26.92;;
28714;SDS011;15886;49.170;14.572;2023-03-01T23:41:56;59.72;;;29.05;;
28714;SDS011;15886;49.170;14.572;2023-03-01T23:44:25;62.30;;;29.30;;
28714;SDS011;15886;49.170;14.572;2023-03-01T23:46:54;60.47;;;29.40;;
28714;SDS011;15886;49.170;14.572;2023-03-01T23:49:24;61.58;;;28.33;;
28714;SDS011;15886;49.170;14.572;2023-03-01T23:51:54;61.10;;;27.85;;
28714;SDS011;15886;49.170;14.572;2023-03-01T23:54:23;58.17;;;29.05;;
28714;SDS011;15886;49.170;14.572;2023-03-01T23:56:52;60.85;;;28.77;;
28714;SDS011;15886;49.170;14.572;2023-03-01T23:59:25;55.38;;;28.63;;
